createdAt,value
2019-05-17T00:02:08.068Z,69.40
2019-05-17T00:04:38.102Z,69.40
2019-05-17T00:07:07.265Z,69.40
2019-05-17T00:09:37.385Z,70.30
2019-05-17T00:12:07.675Z,69.40
2019-05-17T00:14:36.868Z,69.40
2019-05-17T00:17:06.691Z,69.40
2019-05-17T00:19:36.869Z,69.40
2019-05-17T00:22:07.407Z,69.40
2019-05-17T00:24:37.121Z,69.40
2019-05-17T00:27:06.894Z,69.40
2019-05-17T00:29:37.244Z,69.40
2019-05-17T00:32:06.654Z,69.50
2019-05-17T00:34:37.763Z,69.40
2019-05-17T00:37:07.134Z,69.40
2019-05-17T00:39:36.865Z,69.40
2019-05-17T00:42:07.033Z,69.40
2019-05-17T00:44:36.749Z,70.50
2019-05-17T00:47:06.522Z,69.40
2019-05-17T00:49:37.148Z,69.40
2019-05-17T00:52:07.217Z,69.40
2019-05-17T00:54:36.810Z,69.40
2019-05-17T00:57:07.528Z,69.40
2019-05-17T00:59:37.033Z,69.40
2019-05-17T01:02:06.962Z,69.40
2019-05-17T01:04:37.026Z,69.40
2019-05-17T01:07:07.123Z,69.40
2019-05-17T01:09:36.770Z,69.40
2019-05-17T01:12:07.101Z,69.40
2019-05-17T01:14:37.196Z,69.40
2019-05-17T01:17:07.221Z,69.40
2019-05-17T01:19:36.863Z,69.40
2019-05-17T01:22:07.532Z,69.40
2019-05-17T01:24:37.015Z,69.40
2019-05-17T01:27:06.681Z,69.40
2019-05-17T01:29:36.469Z,69.40
2019-05-17T01:32:06.755Z,69.40
2019-05-17T01:34:37.648Z,69.40
2019-05-17T01:37:07.236Z,69.40
2019-05-17T01:39:37.517Z,69.40
2019-05-17T01:42:07.019Z,69.40
2019-05-17T01:44:36.774Z,69.40
2019-05-17T01:47:07.424Z,70.30
2019-05-17T01:49:36.663Z,69.40
2019-05-17T01:52:07.523Z,69.40
2019-05-17T01:54:36.872Z,69.40
2019-05-17T01:57:07.368Z,69.40
2019-05-17T01:59:37.332Z,69.40
2019-05-17T02:02:08.485Z,69.40
2019-05-17T02:04:38.432Z,69.40
2019-05-17T02:07:07.681Z,69.40
2019-05-17T02:09:41.159Z,69.40
2019-05-17T02:12:07.707Z,69.40
2019-05-17T02:14:37.431Z,69.40
2019-05-17T02:17:07.040Z,69.50
2019-05-17T02:19:37.164Z,69.40
2019-05-17T02:22:07.486Z,69.40
2019-05-17T02:24:37.199Z,69.40
2019-05-17T02:27:06.311Z,69.40
2019-05-17T02:29:35.879Z,69.40
2019-05-17T02:32:05.033Z,69.40
2019-05-17T02:34:34.169Z,69.50
2019-05-17T02:37:03.372Z,69.40
2019-05-17T02:39:32.910Z,69.50
2019-05-17T02:42:02.924Z,69.40
2019-05-17T02:44:33.476Z,69.40
2019-05-17T02:47:03.634Z,69.40
2019-05-17T02:49:33.252Z,69.40
2019-05-17T02:52:03.430Z,69.40
2019-05-17T02:54:33.015Z,69.40
2019-05-17T02:57:03.319Z,69.40
2019-05-17T02:59:33.269Z,69.40
2019-05-17T03:02:03.426Z,69.40
2019-05-17T03:04:33.192Z,69.40
2019-05-17T03:07:03.908Z,69.40
2019-05-17T03:09:33.846Z,69.40
2019-05-17T03:12:03.800Z,69.40
2019-05-17T03:14:33.212Z,69.40
2019-05-17T03:17:03.236Z,69.40
2019-05-17T03:19:33.223Z,69.40
2019-05-17T03:22:07.125Z,69.30
2019-05-17T03:24:33.542Z,69.40
2019-05-17T03:27:03.108Z,69.50
2019-05-17T03:29:33.478Z,69.30
2019-05-17T03:32:08.291Z,69.40
2019-05-17T03:34:36.875Z,69.40
2019-05-17T03:37:06.941Z,69.40
2019-05-17T03:39:35.901Z,69.40
2019-05-17T03:42:05.041Z,69.40
2019-05-17T03:44:34.262Z,69.40
2019-05-17T03:47:03.477Z,69.40
2019-05-17T03:49:33.302Z,69.40
2019-05-17T03:52:03.121Z,69.10
2019-05-17T03:54:32.677Z,69.00
2019-05-17T03:57:02.987Z,69.30
2019-05-17T03:59:33.488Z,69.40
2019-05-17T04:02:03.570Z,69.40
2019-05-17T04:04:33.279Z,69.00
2019-05-17T04:07:03.466Z,69.10
2019-05-17T04:09:37.097Z,68.90
2019-05-17T04:12:04.005Z,69.10
2019-05-17T04:14:33.681Z,68.80
2019-05-17T04:17:03.280Z,69.30
2019-05-17T04:19:33.681Z,69.00
2019-05-17T04:22:03.956Z,68.80
2019-05-17T04:24:33.525Z,68.90
2019-05-17T04:27:03.546Z,68.80
2019-05-17T04:29:33.553Z,69.30
2019-05-17T04:32:04.002Z,69.40
2019-05-17T04:34:33.951Z,69.00
2019-05-17T04:37:04.475Z,69.40
2019-05-17T04:39:33.924Z,69.00
2019-05-17T04:42:04.340Z,68.90
2019-05-17T04:44:33.849Z,69.00
2019-05-17T04:47:03.532Z,68.60
2019-05-17T04:49:33.413Z,68.40
2019-05-17T04:52:03.746Z,68.30
2019-05-17T04:54:33.586Z,68.50
2019-05-17T04:57:03.074Z,68.70
2019-05-17T04:59:33.722Z,68.70
2019-05-17T05:02:03.458Z,69.50
2019-05-17T05:04:36.160Z,68.80
2019-05-17T05:07:04.072Z,68.90
2019-05-17T05:09:33.582Z,68.70
2019-05-17T05:12:06.301Z,68.70
2019-05-17T05:14:33.915Z,68.50
2019-05-17T05:17:03.124Z,68.40
2019-05-17T05:19:32.943Z,68.50
2019-05-17T05:22:04.449Z,68.80
2019-05-17T05:24:33.348Z,69.00
2019-05-17T05:27:02.709Z,68.50
2019-05-17T05:29:32.204Z,69.70
2019-05-17T05:32:02.690Z,69.70
2019-05-17T05:34:32.283Z,69.80
2019-05-17T05:37:02.288Z,69.80
2019-05-17T05:39:31.931Z,69.80
2019-05-17T05:42:09.795Z,69.80
2019-05-17T05:44:32.317Z,69.90
2019-05-17T05:47:02.165Z,69.90
2019-05-17T05:49:32.070Z,69.90
2019-05-17T05:52:02.116Z,69.90
2019-05-17T05:54:32.242Z,69.90
2019-05-17T05:57:03.280Z,69.90
2019-05-17T05:59:35.294Z,69.80
2019-05-17T06:02:03.935Z,70.00
2019-05-17T06:04:33.078Z,70.60
2019-05-17T06:07:02.971Z,70.30
2019-05-17T06:09:32.567Z,70.80
2019-05-17T06:12:02.429Z,70.50
2019-05-17T06:14:32.344Z,69.90
2019-05-17T06:17:02.981Z,69.90
2019-05-17T06:19:32.655Z,69.90
2019-05-17T06:22:02.719Z,69.90
2019-05-17T06:24:32.153Z,69.90
2019-05-17T06:27:01.871Z,69.80
2019-05-17T06:29:32.802Z,69.80
2019-05-17T06:32:02.699Z,69.90
2019-05-17T06:34:32.760Z,69.80
2019-05-17T06:37:02.482Z,69.80
2019-05-17T06:39:32.833Z,69.80
2019-05-17T06:42:02.863Z,70.60
2019-05-17T06:44:32.613Z,71.60
2019-05-17T06:47:02.692Z,71.30
2019-05-17T06:49:32.664Z,71.40
2019-05-17T06:52:02.483Z,71.50
2019-05-17T06:54:33.154Z,71.10
2019-05-17T06:57:03.423Z,70.80
2019-05-17T06:59:33.594Z,70.80
2019-05-17T07:02:02.782Z,71.10
2019-05-17T07:04:31.959Z,71.10
2019-05-17T07:07:20.770Z,71.00
2019-05-17T07:09:49.724Z,71.20
2019-05-17T07:12:20.258Z,71.30
2019-05-17T07:14:50.690Z,71.30
2019-05-17T07:17:20.021Z,71.30
2019-05-17T07:19:50.736Z,71.90
2019-05-17T07:22:21.196Z,72.10
2019-05-17T07:24:50.619Z,72.10
2019-05-17T07:27:19.747Z,71.70
2019-05-17T07:29:49.701Z,71.60
2019-05-17T07:32:19.457Z,71.90
2019-05-17T07:34:50.736Z,71.80
2019-05-17T07:37:19.674Z,72.70
2019-05-17T07:40:00.943Z,71.70
2019-05-17T07:42:19.668Z,71.40
2019-05-17T07:44:49.821Z,71.90
2019-05-17T07:47:20.284Z,71.60
2019-05-17T07:49:49.585Z,71.90
2019-05-17T07:52:20.632Z,71.40
2019-05-17T07:54:50.881Z,71.60
2019-05-17T07:57:20.769Z,71.30
2019-05-17T07:59:50.767Z,71.60
2019-05-17T08:02:20.282Z,71.50
2019-05-17T08:04:50.148Z,71.50
2019-05-17T08:07:19.751Z,70.90
2019-05-17T08:09:50.605Z,71.40
2019-05-17T08:12:20.077Z,71.60
2019-05-17T08:14:50.291Z,71.70
2019-05-17T08:17:20.200Z,71.50
2019-05-17T08:19:49.895Z,71.20
2019-05-17T08:22:20.206Z,71.40
2019-05-17T08:24:49.513Z,71.20
2019-05-17T08:27:20.151Z,71.30
2019-05-17T08:29:49.983Z,71.20
2019-05-17T08:32:20.786Z,71.40
2019-05-17T08:34:51.857Z,71.60
2019-05-17T08:37:20.943Z,71.40
2019-05-17T08:39:50.582Z,71.60
2019-05-17T08:42:20.611Z,70.80
2019-05-17T08:44:49.918Z,71.00
2019-05-17T08:47:20.932Z,71.20
2019-05-17T08:49:50.428Z,71.60
2019-05-17T08:52:20.113Z,71.10
2019-05-17T08:54:49.680Z,71.60
2019-05-17T08:57:20.560Z,71.10
2019-05-17T08:59:49.907Z,70.90
2019-05-17T09:02:19.905Z,70.90
2019-05-17T09:04:49.872Z,71.10
2019-05-17T09:07:20.439Z,71.30
2019-05-17T09:09:50.287Z,71.10
2019-05-17T09:12:20.640Z,71.10
2019-05-17T09:14:49.962Z,71.10
2019-05-17T09:17:19.475Z,71.30
2019-05-17T09:19:50.964Z,71.40
2019-05-17T09:22:19.900Z,71.60
2019-05-17T09:24:49.981Z,71.40
2019-05-17T09:27:19.897Z,71.50
2019-05-17T09:29:49.847Z,71.60
2019-05-17T09:32:20.093Z,71.60
2019-05-17T09:34:49.929Z,71.60
2019-05-17T09:37:22.432Z,71.70
2019-05-17T09:39:50.594Z,71.70
2019-05-17T09:42:20.937Z,71.70
2019-05-17T09:44:50.390Z,71.60
2019-05-17T09:47:20.623Z,71.30
2019-05-17T09:49:50.260Z,72.10
2019-05-17T09:52:20.137Z,71.60
2019-05-17T09:54:50.483Z,71.50
2019-05-17T09:57:20.586Z,71.40
2019-05-17T09:59:49.867Z,71.60
2019-05-17T10:02:20.366Z,71.50
2019-05-17T10:04:50.293Z,71.90
2019-05-17T10:07:20.733Z,71.10
2019-05-17T10:09:51.764Z,71.40
2019-05-17T10:12:20.946Z,71.40
2019-05-17T10:14:50.122Z,71.00
2019-05-17T10:17:21.164Z,71.20
2019-05-17T10:19:50.223Z,71.40
2019-05-17T10:22:20.000Z,70.80
2019-05-17T10:24:49.403Z,70.30
2019-05-17T10:27:19.657Z,71.00
2019-05-17T10:29:50.109Z,71.00
2019-05-17T10:32:20.458Z,71.20
2019-05-17T10:34:49.947Z,71.70
2019-05-17T10:37:20.331Z,71.70
2019-05-17T10:39:50.244Z,71.30
2019-05-17T10:42:20.903Z,71.00
2019-05-17T10:44:51.319Z,71.00
2019-05-17T10:47:21.130Z,71.50
2019-05-17T10:49:50.276Z,70.60
2019-05-17T10:52:20.332Z,71.60
2019-05-17T10:54:49.875Z,72.00
2019-05-17T10:57:19.500Z,71.60
2019-05-17T10:59:49.889Z,71.60
2019-05-17T11:02:19.853Z,71.50
2019-05-17T11:04:50.665Z,71.20
2019-05-17T11:07:20.087Z,71.30
2019-05-17T11:09:50.781Z,71.20
2019-05-17T11:12:20.237Z,71.70
2019-05-17T11:15:01.138Z,71.30
2019-05-17T11:17:20.504Z,70.70
2019-05-17T11:19:49.866Z,71.00
2019-05-17T11:22:19.043Z,71.50
2019-05-17T11:24:48.217Z,71.20
2019-05-17T11:27:17.533Z,70.90
2019-05-17T11:29:46.746Z,71.40
2019-05-17T11:32:16.016Z,70.40
2019-05-17T11:34:45.436Z,70.90
2019-05-17T11:37:14.618Z,70.30
2019-05-17T11:39:43.821Z,71.20
2019-05-17T11:42:12.971Z,70.30
2019-05-17T11:44:42.112Z,70.50
2019-05-17T11:47:11.295Z,71.10
2019-05-17T11:49:40.476Z,70.30
2019-05-17T11:52:09.612Z,70.30
2019-05-17T11:54:38.789Z,70.40
2019-05-17T11:57:07.927Z,70.30
2019-05-17T11:59:37.087Z,70.40
2019-05-17T12:02:06.281Z,70.50
2019-05-17T12:04:35.418Z,71.00
2019-05-17T12:07:04.603Z,71.30
2019-05-17T12:09:37.377Z,71.50
2019-05-17T12:12:04.630Z,71.30
2019-05-17T12:14:33.937Z,71.40
2019-05-17T12:17:03.104Z,71.30
2019-05-17T12:19:32.309Z,71.40
2019-05-17T12:22:01.456Z,71.30
2019-05-17T12:24:30.676Z,71.60
2019-05-17T12:26:59.892Z,71.70
2019-05-17T12:29:29.026Z,71.50
2019-05-17T12:31:58.168Z,71.30
2019-05-17T12:34:27.354Z,71.40
2019-05-17T12:36:56.543Z,71.20
2019-05-17T12:39:25.736Z,71.20
2019-05-17T12:41:54.975Z,71.40
2019-05-17T12:44:24.217Z,71.00
2019-05-17T12:46:53.390Z,71.10
2019-05-17T12:49:22.605Z,70.90
2019-05-17T12:51:51.825Z,70.70
2019-05-17T12:54:21.009Z,70.40
2019-05-17T12:56:50.354Z,70.80
2019-05-17T12:59:19.515Z,70.90
2019-05-17T13:01:48.659Z,70.70
2019-05-17T13:04:17.806Z,71.00
2019-05-17T13:06:46.981Z,71.20
2019-05-17T13:09:16.087Z,71.20
2019-05-17T13:11:45.266Z,71.20
2019-05-17T13:14:14.513Z,71.40
2019-05-17T13:16:43.651Z,71.40
2019-05-17T13:19:12.794Z,71.20
2019-05-17T13:21:47.718Z,71.10
2019-05-17T13:24:16.872Z,70.90
2019-05-17T13:26:46.009Z,70.80
2019-05-17T13:29:15.144Z,71.90
2019-05-17T13:31:44.301Z,70.90
2019-05-17T13:34:13.446Z,71.10
2019-05-17T13:36:42.567Z,70.30
2019-05-17T13:39:11.709Z,70.70
2019-05-17T13:41:40.841Z,71.50
2019-05-17T13:44:10.009Z,70.40
2019-05-17T13:46:39.147Z,70.30
2019-05-17T13:49:08.282Z,70.30
2019-05-17T13:51:37.424Z,70.50
2019-05-17T13:54:06.606Z,70.40
2019-05-17T13:56:35.747Z,70.30
2019-05-17T13:59:05.001Z,70.50
2019-05-17T14:01:34.289Z,70.50
2019-05-17T14:04:03.447Z,70.30
2019-05-17T14:06:32.601Z,70.30
2019-05-17T14:09:01.750Z,71.40
2019-05-17T14:11:30.891Z,70.80
2019-05-17T14:14:00.217Z,70.40
2019-05-17T14:16:33.920Z,70.40
2019-05-17T14:19:00.283Z,70.40
2019-05-17T14:21:29.852Z,70.80
2019-05-17T14:23:59.011Z,70.70
2019-05-17T14:26:28.173Z,70.40
2019-05-17T14:28:57.577Z,70.60
2019-05-17T14:31:26.707Z,70.60
2019-05-17T14:33:55.908Z,70.30
2019-05-17T14:36:25.048Z,70.40
2019-05-17T14:38:54.208Z,70.30
2019-05-17T14:41:23.349Z,70.20
2019-05-17T14:43:52.513Z,70.30
2019-05-17T14:46:21.662Z,70.30
2019-05-17T14:48:50.892Z,70.30
2019-05-17T14:51:20.019Z,70.70
2019-05-17T14:53:49.341Z,70.30
2019-05-17T14:56:18.639Z,70.50
2019-05-17T14:58:47.768Z,71.30
2019-05-17T15:01:16.927Z,70.80
2019-05-17T15:03:46.181Z,70.50
2019-05-17T15:06:15.311Z,70.30
2019-05-17T15:08:44.447Z,70.20
2019-05-17T15:11:13.633Z,70.30
2019-05-17T15:13:42.763Z,70.30
2019-05-17T15:16:11.900Z,70.30
2019-05-17T15:18:41.055Z,70.20
2019-05-17T15:21:10.258Z,70.20
2019-05-17T15:23:39.417Z,71.10
2019-05-17T15:26:08.546Z,70.20
2019-05-17T15:28:37.706Z,70.30
2019-05-17T15:31:06.843Z,70.30
2019-05-17T15:33:36.001Z,70.20
2019-05-17T15:36:05.226Z,71.40
2019-05-17T15:38:34.401Z,72.60
2019-05-17T15:41:03.556Z,73.50
2019-05-17T15:43:32.989Z,74.30
2019-05-17T15:46:02.137Z,75.50
2019-05-17T15:48:31.297Z,76.70
2019-05-17T15:51:00.457Z,77.30
2019-05-17T15:53:29.634Z,77.40
2019-05-17T15:55:58.861Z,77.40
2019-05-17T15:58:28.040Z,77.10
2019-05-17T16:00:57.191Z,77.10
2019-05-17T16:03:26.350Z,76.50
2019-05-17T16:05:55.514Z,75.80
2019-05-17T16:08:24.649Z,75.60
2019-05-17T16:10:53.847Z,74.50
2019-05-17T16:13:22.997Z,74.20
2019-05-17T16:15:52.159Z,73.40
2019-05-17T16:18:21.321Z,73.10
2019-05-17T16:20:50.502Z,72.60
2019-05-17T16:23:19.639Z,72.40
2019-05-17T16:25:48.801Z,72.20
2019-05-17T16:28:17.967Z,71.90
2019-05-17T16:30:47.153Z,71.80
2019-05-17T16:33:16.302Z,71.40
2019-05-17T16:35:45.454Z,71.30
2019-05-17T16:38:14.633Z,71.20
2019-05-17T16:40:43.790Z,70.90
2019-05-17T16:43:18.153Z,71.00
2019-05-17T16:45:43.816Z,70.90
2019-05-17T16:48:13.045Z,71.90
2019-05-17T16:50:42.187Z,72.20
2019-05-17T16:53:11.356Z,72.00
2019-05-17T16:55:40.509Z,71.30
2019-05-17T16:58:09.806Z,68.50
2019-05-17T17:00:41.627Z,68.80
2019-05-17T17:03:10.948Z,70.00
2019-05-17T17:05:40.089Z,68.90
2019-05-17T17:08:09.262Z,68.20
2019-05-17T17:10:38.406Z,69.80
2019-05-17T17:13:07.558Z,69.80
2019-05-17T17:15:36.715Z,69.50
2019-05-17T17:18:06.326Z,69.20
2019-05-17T17:20:35.474Z,69.30
2019-05-17T17:23:04.685Z,69.70
2019-05-17T17:25:34.098Z,69.50
2019-05-17T17:28:06.002Z,69.50
2019-05-17T17:30:34.098Z,69.60
2019-05-17T17:33:03.235Z,69.10
2019-05-17T17:35:32.374Z,69.10
2019-05-17T17:38:01.502Z,68.60
2019-05-17T17:40:30.648Z,68.70
2019-05-17T17:42:59.815Z,68.20
2019-05-17T17:45:28.947Z,67.90
2019-05-17T17:47:58.087Z,68.10
2019-05-17T17:50:27.231Z,68.50
2019-05-17T17:52:56.526Z,69.30
2019-05-17T17:55:25.672Z,70.10
2019-05-17T17:57:54.841Z,70.60
2019-05-17T18:00:24.719Z,71.70
2019-05-17T18:02:53.850Z,72.50
2019-05-17T18:05:25.051Z,71.30
2019-05-17T18:07:53.868Z,70.80
2019-05-17T18:10:32.818Z,69.90
2019-05-17T18:13:01.992Z,70.30
2019-05-17T18:15:36.016Z,71.10
2019-05-17T18:18:05.272Z,71.40
2019-05-17T18:20:34.419Z,71.80
2019-05-17T18:23:03.620Z,71.60
2019-05-17T18:25:32.809Z,72.00
2019-05-17T18:28:01.938Z,71.40
2019-05-17T18:30:31.084Z,72.00
2019-05-17T18:33:00.257Z,72.70
2019-05-17T18:35:29.393Z,71.80
2019-05-17T18:37:58.615Z,73.00
2019-05-17T18:40:27.742Z,73.00
2019-05-17T18:42:56.902Z,73.20
2019-05-17T18:45:26.218Z,72.70
2019-05-17T18:47:55.363Z,72.00
2019-05-17T18:50:24.866Z,71.70
2019-05-17T18:52:54.024Z,72.20
2019-05-17T18:55:23.190Z,72.80
2019-05-17T18:57:52.344Z,72.10
2019-05-17T19:00:21.476Z,72.30
2019-05-17T19:02:50.651Z,73.00
2019-05-17T19:05:19.789Z,74.70
2019-05-17T19:07:48.989Z,73.70
2019-05-17T19:10:18.139Z,73.40
2019-05-17T19:12:47.656Z,74.10
2019-05-17T19:15:16.887Z,74.30
2019-05-17T19:17:46.041Z,74.50
2019-05-17T19:20:15.181Z,75.00
2019-05-17T19:22:44.323Z,75.40
2019-05-17T19:25:13.751Z,75.60
2019-05-17T19:27:42.917Z,76.00
2019-05-17T19:30:12.175Z,76.20
2019-05-17T19:32:41.617Z,76.30
2019-05-17T19:35:10.718Z,76.50
2019-05-17T19:37:39.864Z,76.80
2019-05-17T19:40:10.179Z,76.90
2019-05-17T19:42:39.326Z,77.10
2019-05-17T19:45:09.114Z,77.10
2019-05-17T19:47:38.256Z,78.00
2019-05-17T19:50:07.988Z,78.60
2019-05-17T19:52:37.129Z,79.30
2019-05-17T19:55:09.071Z,79.80
2019-05-17T19:57:38.286Z,80.00
2019-05-17T20:00:08.950Z,80.70
2019-05-17T20:02:38.127Z,81.30
2019-05-17T20:05:07.417Z,81.80
2019-05-17T20:07:39.016Z,82.10
2019-05-17T20:10:10.256Z,82.60
2019-05-17T20:12:39.392Z,83.00
2019-05-17T20:15:17.257Z,83.30
2019-05-17T20:17:40.004Z,83.80
2019-05-17T20:20:09.128Z,83.90
2019-05-17T20:22:38.372Z,84.10
2019-05-17T20:25:07.593Z,84.40
2019-05-17T20:27:36.891Z,84.70
2019-05-17T20:30:09.133Z,84.70
2019-05-17T20:32:38.400Z,85.20
2019-05-17T20:35:08.034Z,85.40
2019-05-17T20:37:37.224Z,85.50
2019-05-17T20:40:07.970Z,85.70
2019-05-17T20:42:37.100Z,85.90
2019-05-17T20:45:08.172Z,86.20
2019-05-17T20:47:37.319Z,86.20
2019-05-17T20:50:09.870Z,86.50
2019-05-17T20:52:39.037Z,86.70
2019-05-17T20:55:08.265Z,86.80
2019-05-17T20:57:37.483Z,87.10
2019-05-17T21:00:07.174Z,87.40
2019-05-17T21:02:36.326Z,87.50
2019-05-17T21:05:07.574Z,87.80
2019-05-17T21:07:36.706Z,88.00
2019-05-17T21:10:06.517Z,88.40
2019-05-17T21:12:35.669Z,89.00
2019-05-17T21:15:07.627Z,89.50
2019-05-17T21:17:36.786Z,89.50
2019-05-17T21:20:08.692Z,89.50
2019-05-17T21:22:37.838Z,89.50
2019-05-17T21:25:06.977Z,89.50
2019-05-17T21:27:36.396Z,89.60
2019-05-17T21:30:06.392Z,89.50
2019-05-17T21:32:35.557Z,89.50
2019-05-17T21:35:06.011Z,90.00
2019-05-17T21:37:35.635Z,89.70
2019-05-17T21:40:08.142Z,89.40
2019-05-17T21:42:37.289Z,89.50
2019-05-17T21:45:07.376Z,89.50
2019-05-17T21:47:36.733Z,89.50
2019-05-17T21:50:05.874Z,89.50
2019-05-17T21:52:35.018Z,89.50
2019-05-17T21:55:04.919Z,89.80
2019-05-17T21:57:34.048Z,90.00
2019-05-17T22:00:03.863Z,90.10
2019-05-17T22:02:33.076Z,90.10
2019-05-17T22:05:02.296Z,90.20
2019-05-17T22:07:31.407Z,90.30
2019-05-17T22:10:00.553Z,90.30
2019-05-17T22:12:29.884Z,90.30
2019-05-17T22:14:59.024Z,90.40
2019-05-17T22:17:28.182Z,90.30
2019-05-17T22:19:57.327Z,90.50
2019-05-17T22:22:26.501Z,90.50
2019-05-17T22:24:55.648Z,90.50
2019-05-17T22:27:24.786Z,90.60
2019-05-17T22:29:53.979Z,90.60
2019-05-17T22:32:23.124Z,90.70
2019-05-17T22:34:52.342Z,90.80
2019-05-17T22:37:21.492Z,90.70
2019-05-17T22:39:50.778Z,90.80
2019-05-17T22:42:19.944Z,90.80
2019-05-17T22:44:49.426Z,90.80
2019-05-17T22:47:18.769Z,90.90
2019-05-17T22:49:48.284Z,90.80
2019-05-17T22:52:17.432Z,91.00
2019-05-17T22:54:46.582Z,91.00
2019-05-17T22:57:15.747Z,91.00
2019-05-17T22:59:44.890Z,91.10
2019-05-17T23:02:14.116Z,91.00
2019-05-17T23:04:43.254Z,91.30
2019-05-17T23:07:12.437Z,91.30
2019-05-17T23:09:41.588Z,91.30
2019-05-17T23:12:10.729Z,91.30
2019-05-17T23:14:39.916Z,91.40
2019-05-17T23:17:09.069Z,91.50
2019-05-17T23:19:38.277Z,91.60
2019-05-17T23:22:07.432Z,91.70
2019-05-17T23:24:36.584Z,91.70
2019-05-17T23:27:05.763Z,91.80
2019-05-17T23:29:34.896Z,92.00
2019-05-17T23:32:04.063Z,91.70
2019-05-17T23:34:33.222Z,91.70
2019-05-17T23:37:02.369Z,90.40
2019-05-17T23:39:31.516Z,89.60
2019-05-17T23:42:00.692Z,89.60
2019-05-17T23:44:29.831Z,89.60
2019-05-17T23:47:07.092Z,89.60
2019-05-17T23:49:29.854Z,89.60
2019-05-17T23:51:59.037Z,89.10
2019-05-17T23:54:28.181Z,89.40
2019-05-17T23:56:57.321Z,88.90
2019-05-17T23:59:26.477Z,88.60
